x

North Hecate Strait (46183) Wave Buoy

2:00am - Mon 24th Apr 2017 All times are PDT. -7 hours from GMT.

  • Sig Wave height 3.0ft
  • Peak Period 7s
  • Wind
    4mph, 7mph gusts
  • Air Temp 46°f
  • Sea Pressure 1008.7mb
  • North Hecate Strait
  • North Hecate Strait

More Historic Weather Station data

Upgrade to MSW Pro to gain access to the past 30 days of data for over 8000 Wavebouys and Weather Stations around the globe.

Join Pro

Comparision Forecast

View Surf forecast
   
Mon 04/24 2:00am 3ft 7s 4 7 mph 1008.7mb 46f
1:00am 3.5ft 10s 7 9 mph 1008.5mb 46f
12:00am 3.5ft 9s 9 11 mph 1008.1mb 46f
Sun 04/23 11:00pm 3.5ft 9s 11 13 mph 1008.1mb 46f
10:00pm 4ft 6s 13 16 mph 1008mb 46f
9:00pm 4ft 8s 13 16 mph 1007.8mb 47f
8:00pm 4.5ft 6s 16 18 mph 1007.6mb 47f
7:00pm 4.5ft 7s 20 22 mph 1007.5mb 47f
6:00pm 5ft 7s 20 25 mph 1007.6mb 47f
5:00pm 5.5ft 7s 22 25 mph 1007.5mb 47f
4:00pm 6.5ft 7s 22 27 mph 1007.4mb 47f
3:00pm 7ft 7s 25 31 mph 1007.2mb 47f
2:00pm 6ft 6s 29 36 mph 1006.3mb 47f
1:00pm 5ft 5s 27 34 mph 1006.1mb 46f
12:00pm 5ft 5s 25 29 mph 1006mb 47f
11:00am 5ft 10s 25 31 mph 1006.2mb 47f
10:00am 4ft 10s 29 36 mph 1005.8mb 47f
9:00am 3ft 8s 22 27 mph 1006.1mb 48f
8:00am 3ft 11s 9 11 mph 1006.4mb 47f
7:00am 2.5ft 11s 9 11 mph 1006.4mb 47f
6:00am 3ft 11s 4 7 mph 1006.3mb 47f
5:00am 3ft 11s 4 7 mph 1006.4mb 48f
4:00am 3ft 12s 9 11 mph 1006.2mb 48f
3:00am 3.5ft 12s 9 13 mph 1006mb 48f
2:00am 3.5ft 11s 13 16 mph 1006.2mb 48f
1:00am 3.5ft 8s 13 16 mph 1006mb 48f
12:00am 3.5ft 11s 13 16 mph 1005.6mb 49f
Sat 04/22 11:00pm 3ft 12s 16 18 mph 1005.3mb 50f
10:00pm 3ft 11s 13 18 mph 1005.4mb 52f
9:00pm 3ft 11s 9 11 mph 1005mb 50f
8:00pm 3ft 11s 4
mph
1004.9mb 54f
7:00pm 3ft 12s 4
mph
1005mb 53f
6:00pm 3ft 12s 4
mph
1005.2mb 54f
5:00pm 3ft 8s 2 4 mph 1005.1mb 51f
4:00pm 3ft 12s 7 9 mph 1005.1mb 50f
3:00pm 3ft 14s 9
mph
1005.3mb 50f
2:00pm 2.5ft 12s 9 11 mph 1005.3mb 50f
1:00pm 2.5ft 9s 11
mph
1005.8mb 49f
12:00pm 3ft 8s 13
mph
1006.1mb 50f
11:00am 2.5ft 7s 13 16 mph 1006.6mb 48f
10:00am 2.5ft 8s 16 18 mph 1007.2mb 49f
9:00am 2.5ft 7s 16 20 mph 1007.8mb 49f
8:00am 2.5ft 8s 18 22 mph 1008.4mb 48f
7:00am 2.5ft 8s 11 13 mph 1010mb 47f
6:00am 2.5ft 8s 11 13 mph 1011.1mb 47f
5:00am 3ft 8s 9 11 mph 1012mb 47f
4:00am 2.5ft 7s 4 9 mph 1012.3mb 47f
3:00am 3ft 7s 9 11 mph 1012.7mb 47f
2:00am 2.5ft 7s 13
mph
1013.6mb 47f
1:00am 2.5ft 8s 9 11 mph 1014.9mb 47f
12:00am 3ft 7s 9
mph
1016.1mb 47f
Fri 04/21 11:00pm 2.5ft 6s 7 9 mph 1017.3mb 47f
10:00pm 3.5ft 6s 7 9 mph 1018mb 47f
9:00pm 3.5ft 8s 7 9 mph 1018.9mb 47f
8:00pm 3.5ft 8s 7 9 mph 1019.6mb 47f
7:00pm 3.5ft 8s 11 13 mph 1020.3mb 48f
6:00pm 3.5ft 5s 11 13 mph 1021.4mb 48f
5:00pm 3.5ft 6s 13 18 mph 1022.4mb 49f
4:00pm 3.5ft 5s 16 18 mph 1023.3mb 48f
3:00pm 3.5ft 4s 16 18 mph 1023.9mb 49f
2:00pm 4ft 5s 18 22 mph 1024.4mb 49f
1:00pm 4ft 5s 18 22 mph 1024.6mb 49f
12:00pm 4ft 4s 20 25 mph 1024.9mb 48f
11:00am 4ft 4s 20 25 mph 1024.9mb 48f
10:00am 3.5ft 5s 20 25 mph 1024.9mb 48f
9:00am 4ft 4s 20 25 mph 1025.4mb 48f
8:00am 3.5ft 4s 20 25 mph 1025.2mb 47f
7:00am 3.5ft 4s 20 22 mph 1025.8mb 47f
6:00am 3.5ft 8s 18 22 mph 1025.9mb 47f
5:00am 3.5ft 8s 18 22 mph 1026.1mb 47f
4:00am 3.5ft 8s 16 20 mph 1026.2mb 47f
3:00am 3.5ft 8s 18 22 mph 1026.3mb 47f
2:00am 3ft 9s 16 20 mph 1026.3mb 47f
1:00am 3ft 9s 13 16 mph 1026.3mb 47f
12:00am 3ft 8s 13 16 mph 1025.9mb 47f
Thu 04/20 11:00pm 3ft 8s 11 13 mph 1025.6mb 47f
10:00pm 3ft 8s 11 13 mph 1025mb 47f
8:00pm 3ft 8s 11 13 mph 1023.8mb 47f
7:00pm 3ft 8s 13 16 mph 1023.5mb 47f
6:00pm 3ft 8s 13 18 mph 1023.4mb 48f
5:00pm 3.5ft 9s 13 16 mph 1023.2mb 48f
4:00pm 3ft 8s 11 13 mph 1023mb 48f
3:00pm 3.5ft 8s 13 16 mph 1022.6mb 48f
2:00pm 3.5ft 9s 9 13 mph 1022mb 48f
1:00pm 3.5ft 8s 9 13 mph 1021.2mb 47f
12:00pm 3.5ft 9s 13 16 mph 1020.4mb 47f
11:00am 3.5ft 8s 11 13 mph 1019.5mb 47f